Time;durP1;ratioP1;P1;durP2;ratioP2;P2;SDS_P1;SDS_P2;PMS_P1;PMS_P2;Temp;Humidity;BMP_temperature;BMP_pressure;BME280_temperature;BME280_humidity;BME280_pressure;Samples;Min_cycle;Max_cycle;Signal;HPM_P1;HPM_P2
2023/04/18 00:01:02;;;;;;;;;;;;;;;11.64;100.00;100195.88;5590020;31;34169;-68
2023/04/18 00:04:05;;;;;;;;;;;;;;;11.62;100.00;100184.56;5589452;31;34386;-69
2023/04/18 00:07:07;;;;;;;;;;;;;;;11.54;100.00;100182.00;5590142;31;34148;-68
2023/04/18 00:10:10;;;;;;;;;;;;;;;11.48;100.00;100195.16;5589935;31;34805;-69
2023/04/18 00:13:13;;;;;;;;;;;;;;;11.57;100.00;100186.16;5589983;31;34076;-69
2023/04/18 00:16:15;;;;;;;;;;;;;;;11.45;100.00;100193.69;5589784;31;34919;-68
2023/04/18 00:19:18;;;;;;;;;;;;;;;11.42;100.00;100194.06;5590182;31;34175;-68
2023/04/18 00:22:21;;;;;;;;;;;;;;;11.44;100.00;100193.88;5589929;31;34039;-69
2023/04/18 00:25:24;;;;;;;;;;;;;;;11.39;100.00;100191.75;5589922;31;34203;-69
2023/04/18 00:28:26;;;;;;;;;;;;;;;11.35;100.00;100193.09;5576087;31;33326;-69
2023/04/18 00:31:29;;;;;;;;;;;;;;;11.35;100.00;100195.75;5589690;31;34355;-69
2023/04/18 00:34:32;;;;;;;;;;;;;;;11.31;100.00;100200.59;5575957;31;34228;-69
2023/04/18 00:37:34;;;;;;;;;;;;;;;11.31;100.00;100194.47;5589694;31;34126;-68
2023/04/18 00:40:37;;;;;;;;;;;;;;;11.33;100.00;100197.75;5589655;31;34611;-69
2023/04/18 00:43:40;;;;;;;;;;;;;;;11.36;100.00;100201.91;5575808;31;34366;-69
2023/04/18 00:46:43;;;;;;;;;;;;;;;11.37;100.00;100196.44;5589676;31;35621;-69
2023/04/18 00:49:46;;;;;;;;;;;;;;;11.37;100.00;100195.59;5589754;31;34203;-70
2023/04/18 00:52:50;;;;;;;;;;;;;;;11.32;100.00;100193.47;5589704;31;34387;-69
2023/04/18 00:55:53;;;;;;;;;;;;;;;11.32;100.00;100199.63;5589446;31;34137;-69
2023/04/18 00:58:56;;;;;;;;;;;;;;;11.33;100.00;100197.75;5589384;31;34144;-69
2023/04/18 01:02:00;;;;;;;;;;;;;;;11.33;100.00;100192.44;5575599;31;34175;-69
2023/04/18 01:05:04;;;;;;;;;;;;;;;11.32;100.00;100193.47;5575939;31;34699;-68
2023/04/18 01:08:07;;;;;;;;;;;;;;;11.26;100.00;100184.38;5589236;31;34809;-69
2023/04/18 01:11:10;;;;;;;;;;;;;;;11.25;100.00;100187.19;5589256;31;34150;-69
2023/04/18 01:14:13;;;;;;;;;;;;;;;11.24;100.00;100188.19;5587884;31;34120;-69
2023/04/18 01:17:18;;;;;;;;;;;;;;;11.24;100.00;100193.50;5589134;31;34164;-68
2023/04/18 01:20:20;;;;;;;;;;;;;;;11.22;100.00;100192.87;5575344;31;34108;-68
2023/04/18 01:23:23;;;;;;;;;;;;;;;11.26;100.00;100188.84;5589034;31;34908;-68
2023/04/18 01:26:26;;;;;;;;;;;;;;;11.34;100.00;100188.78;5589382;31;34228;-68
2023/04/18 01:29:28;;;;;;;;;;;;;;;11.37;100.00;100190.28;5588865;31;34100;-69
2023/04/18 01:32:31;;;;;;;;;;;;;;;11.38;100.00;100190.09;5588870;31;34377;-68
2023/04/18 01:35:33;;;;;;;;;;;;;;;11.34;100.00;100186.97;5588800;31;34099;-69
2023/04/18 01:38:36;;;;;;;;;;;;;;;11.43;100.00;100185.06;5589080;31;34759;-69
2023/04/18 01:41:40;;;;;;;;;;;;;;;11.40;100.00;100185.44;5588502;31;34839;-70
2023/04/18 01:44:43;;;;;;;;;;;;;;;11.44;100.00;100185.91;5588560;31;34108;-69
2023/04/18 01:47:47;;;;;;;;;;;;;;;11.39;100.00;100191.75;5588445;31;34571;-69
2023/04/18 01:50:49;;;;;;;;;;;;;;;11.41;100.00;100187.09;5588542;31;34085;-68
2023/04/18 01:53:52;;;;;;;;;;;;;;;11.43;100.00;100187.72;5588725;31;34860;-69
2023/04/18 01:56:54;;;;;;;;;;;;;;;11.40;100.00;100190.75;5588339;31;34132;-68
2023/04/18 01:59:57;;;;;;;;;;;;;;;11.38;100.00;100190.09;5588284;31;34221;-68
2023/04/18 02:02:59;;;;;;;;;;;;;;;11.40;100.00;100184.59;5588331;31;33689;-68
2023/04/18 02:06:03;;;;;;;;;;;;;;;11.39;100.00;100194.41;5574422;31;34249;-69
2023/04/18 02:09:05;;;;;;;;;;;;;;;11.33;100.00;100190.63;5588239;31;33588;-69
2023/04/18 02:12:08;;;;;;;;;;;;;;;11.32;100.00;100196.13;5588133;31;33448;-69
2023/04/18 02:15:11;;;;;;;;;;;;;;;11.38;100.00;100192.75;5588362;31;34232;-69
2023/04/18 02:18:14;;;;;;;;;;;;;;;11.38;100.00;100192.75;5588023;31;34020;-69
2023/04/18 02:21:16;;;;;;;;;;;;;;;11.32;100.00;100204.91;5588057;31;34827;-68
2023/04/18 02:24:19;;;;;;;;;;;;;;;11.28;100.00;100202.78;5587959;31;34045;-69
2023/04/18 02:27:22;;;;;;;;;;;;;;;11.28;100.00;100197.47;5590580;31;34148;-69
2023/04/18 02:30:25;;;;;;;;;;;;;;;11.26;100.00;100192.34;5590787;31;34823;-69
2023/04/18 02:33:28;;;;;;;;;;;;;;;11.24;100.00;100199.66;5590791;31;35116;-69
2023/04/18 02:36:30;;;;;;;;;;;;;;;11.23;100.00;100194.53;5591094;31;34254;-68
2023/04/18 02:39:33;;;;;;;;;;;;;;;11.27;100.00;100190.53;5590775;31;34333;-69
2023/04/18 02:42:35;;;;;;;;;;;;;;;11.31;100.00;100195.28;5591067;31;34789;-69
2023/04/18 02:45:38;;;;;;;;;;;;;;;11.28;100.00;100197.47;5590598;31;34173;-69
2023/04/18 02:48:41;;;;;;;;;;;;;;;11.25;100.00;100201.31;5590784;31;34439;-69
2023/04/18 02:51:44;;;;;;;;;;;;;;;11.03;100.00;100201.28;5590749;31;34339;-69
2023/04/18 02:54:46;;;;;;;;;;;;;;;10.99;100.00;100197.34;5590561;31;33181;-69
2023/04/18 02:57:49;;;;;;;;;;;;;;;11.02;100.00;100197.81;5590538;31;34230;-69
2023/04/18 03:00:53;;;;;;;;;;;;;;;11.07;100.00;100205.25;5590855;31;34237;-69
2023/04/18 03:03:57;;;;;;;;;;;;;;;11.05;100.00;100204.59;5590425;31;34396;-69
2023/04/18 03:07:00;;;;;;;;;;;;;;;11.07;100.00;100213.22;5590763;31;34203;-69
2023/04/18 03:10:04;;;;;;;;;;;;;;;11.03;100.00;100210.09;5590442;31;34121;-69
2023/04/18 03:13:07;;;;;;;;;;;;;;;11.03;100.00;100209.25;5590373;31;34830;-69
2023/04/18 03:16:10;;;;;;;;;;;;;;;11.05;100.00;100215.19;5590685;31;34881;-69
2023/04/18 03:19:13;;;;;;;;;;;;;;;11.12;100.00;100213.50;5590614;31;34514;-69
2023/04/18 03:22:18;;;;;;;;;;;;;;;11.16;100.00;100218.28;5590831;31;34430;-69
2023/04/18 03:25:23;;;;;;;;;;;;;;;11.17;100.00;100213.81;5590815;31;33385;-69
2023/04/18 03:28:25;;;;;;;;;;;;;;;11.28;100.00;100216.03;5576482;31;34897;-69
2023/04/18 03:31:28;;;;;;;;;;;;;;;11.24;100.00;100215.59;5590394;31;34184;-69
2023/04/18 03:34:31;;;;;;;;;;;;;;;11.21;100.00;100220.44;5590354;31;34175;-69
2023/04/18 03:37:34;;;;;;;;;;;;;;;11.19;100.00;100220.59;5589443;31;34876;-69
2023/04/18 03:40:37;;;;;;;;;;;;;;;11.20;100.00;100218.75;5590568;31;34214;-68
2023/04/18 03:43:40;;;;;;;;;;;;;;;11.20;100.00;100219.59;5576430;31;34992;-69
2023/04/18 03:46:43;;;;;;;;;;;;;;;11.21;100.00;100220.44;5590069;31;34256;-70
2023/04/18 03:49:46;;;;;;;;;;;;;;;11.20;100.00;100221.41;5590369;31;34916;-68
2023/04/18 03:52:49;;;;;;;;;;;;;;;11.18;100.00;100223.44;5590358;31;34886;-69
2023/04/18 03:55:52;;;;;;;;;;;;;;;11.16;100.00;100226.25;5590155;31;34199;-69
2023/04/18 03:58:55;;;;;;;;;;;;;;;11.13;100.00;100223.13;5589997;31;34775;-69
2023/04/18 04:01:57;;;;;;;;;;;;;;;11.04;100.00;100224.16;5589974;31;34036;-70
2023/04/18 04:05:01;;;;;;;;;;;;;;;10.96;100.00;100235.66;5590520;31;34209;-71
2023/04/18 04:08:04;;;;;;;;;;;;;;;10.78;100.00;100235.09;5590315;31;34431;-71
2023/04/18 04:11:08;;;;;;;;;;;;;;;10.64;100.00;100238.47;5590365;31;34163;-71
2023/04/18 04:14:11;;;;;;;;;;;;;;;10.51;100.00;100240.81;5576116;31;34915;-72
2023/04/18 04:17:15;;;;;;;;;;;;;;;10.39;100.00;100248.31;5590111;31;34763;-71
2023/04/18 04:20:22;;;;;;;;;;;;;;;10.33;100.00;100246.34;5575946;31;35051;-72
2023/04/18 04:23:27;;;;;;;;;;;;;;;10.23;100.00;100249.19;5576482;31;34303;-72
2023/04/18 04:26:29;;;;;;;;;;;;;;;10.18;100.00;100261.28;5589771;31;34795;-71
2023/04/18 04:29:34;;;;;;;;;;;;;;;10.19;100.00;100260.28;5590042;31;34183;-73
2023/04/18 04:32:37;;;;;;;;;;;;;;;10.21;100.00;100264.44;5589722;31;34891;-72
2023/04/18 04:35:40;;;;;;;;;;;;;;;10.21;100.00;100264.44;5589614;31;34284;-73
2023/04/18 04:38:43;;;;;;;;;;;;;;;10.15;100.00;100273.03;5589760;31;34396;-73
2023/04/18 04:41:47;;;;;;;;;;;;;;;10.08;100.00;100266.72;5589534;31;34546;-74
2023/04/18 04:44:52;;;;;;;;;;;;;;;10.01;100.00;100277.19;5589928;31;34727;-73
2023/04/18 04:47:55;;;;;;;;;;;;;;;9.97;100.00;100275.03;5589371;31;34790;-73
2023/04/18 04:50:58;;;;;;;;;;;;;;;10.10;100.00;100279.81;5589172;31;34210;-72
2023/04/18 04:54:01;;;;;;;;;;;;;;;10.07;100.00;100272.22;5589831;31;34128;-72
2023/04/18 04:57:04;;;;;;;;;;;;;;;10.13;100.00;100269.69;5589623;31;34856;-72
2023/04/18 05:00:07;;;;;;;;;;;;;;;10.20;100.00;100270.72;5589239;31;34936;-72
2023/04/18 05:03:10;;;;;;;;;;;;;;;10.21;100.00;100279.53;5589542;31;34209;-73
2023/04/18 05:06:19;;;;;;;;;;;;;;;10.24;100.00;100273.88;5588971;31;34253;-71
2023/04/18 05:09:21;;;;;;;;;;;;;;;10.16;100.00;100282.66;5575100;31;32848;-71
2023/04/18 05:12:25;;;;;;;;;;;;;;;10.15;100.00;100282.78;5588630;31;34152;-71
2023/04/18 05:15:27;;;;;;;;;;;;;;;10.09;100.00;100281.63;5588969;31;34393;-71
2023/04/18 05:18:30;;;;;;;;;;;;;;;10.23;100.00;100280.16;5588998;31;34741;-71
2023/04/18 05:21:36;;;;;;;;;;;;;;;10.26;100.00;100282.50;5588481;31;34466;-71
2023/04/18 05:24:39;;;;;;;;;;;;;;;10.26;100.00;100280.66;5588504;31;34831;-71
2023/04/18 05:27:42;;;;;;;;;;;;;;;10.33;100.00;100286.94;5588660;31;34211;-71
2023/04/18 05:30:44;;;;;;;;;;;;;;;10.40;100.00;100295.91;5588501;31;34310;-71
2023/04/18 05:33:47;;;;;;;;;;;;;;;10.50;100.00;100298.37;5588305;31;34217;-70
2023/04/18 05:36:49;;;;;;;;;;;;;;;10.50;100.00;100294.87;5588158;31;34109;-70
2023/04/18 05:39:52;;;;;;;;;;;;;;;10.53;100.00;100295.34;5588011;31;34824;-71
2023/04/18 05:42:54;;;;;;;;;;;;;;;10.60;100.00;100296.31;5588224;31;34818;-71
2023/04/18 05:45:57;;;;;;;;;;;;;;;10.79;100.00;100287.16;5587787;31;34189;-71
2023/04/18 05:49:00;;;;;;;;;;;;;;;11.01;100.00;100301.50;5587626;31;34192;-71
2023/04/18 05:52:02;;;;;;;;;;;;;;;11.03;100.00;100300.34;5587974;31;34420;-71
2023/04/18 05:55:05;;;;;;;;;;;;;;;11.13;100.00;100298.31;5587898;31;34695;-71
2023/04/18 05:58:08;;;;;;;;;;;;;;;11.17;100.00;100302.28;5588511;31;34244;-71
2023/04/18 06:01:13;;;;;;;;;;;;;;;11.32;100.00;100305.84;5589747;31;34259;-70
2023/04/18 06:04:17;;;;;;;;;;;;;;;11.30;100.00;100307.84;5590144;31;34836;-71
2023/04/18 06:07:23;;;;;;;;;;;;;;;11.46;100.00;100303.44;5590618;31;34852;-71
2023/04/18 06:10:26;;;;;;;;;;;;;;;11.70;100.00;100305.94;5590572;31;34798;-71
2023/04/18 06:13:29;;;;;;;;;;;;;;;11.56;100.00;100312.84;5590621;31;34759;-71
2023/04/18 06:16:32;;;;;;;;;;;;;;;11.56;100.00;100306.69;5590473;31;34181;-71
2023/04/18 06:19:35;;;;;;;;;;;;;;;11.62;100.00;100312.13;5591000;31;34214;-71
2023/04/18 06:22:37;;;;;;;;;;;;;;;11.55;100.00;100308.53;5590572;31;34301;-71
2023/04/18 06:25:40;;;;;;;;;;;;;;;11.72;100.00;100320.72;5589594;31;34788;-70
2023/04/18 06:28:43;;;;;;;;;;;;;;;11.73;100.00;100325.03;5590635;31;34865;-70
2023/04/18 06:31:47;;;;;;;;;;;;;;;11.85;100.00;100319.31;5590884;31;34785;-71
2023/04/18 06:34:52;;;;;;;;;;;;;;;12.05;100.00;100323.16;5576525;31;33816;-70
2023/04/18 06:37:54;;;;;;;;;;;;;;;12.13;100.00;100317.75;5590587;31;34718;-70
2023/04/18 06:40:57;;;;;;;;;;;;;;;12.16;100.00;100326.19;5590656;31;34311;-72
2023/04/18 06:43:59;;;;;;;;;;;;;;;12.38;100.00;100321.87;5576299;31;34811;-70
2023/04/18 06:47:06;;;;;;;;;;;;;;;12.50;100.00;100324.91;5590569;31;34251;-70
2023/04/18 06:50:08;;;;;;;;;;;;;;;12.85;100.00;100324.19;5590504;31;34397;-71
2023/04/18 06:53:11;;;;;;;;;;;;;;;13.18;100.00;100335.31;5590398;31;34403;-70
2023/04/18 06:56:13;;;;;;;;;;;;;;;13.41;100.00;100330.69;5590247;31;34222;-72
2023/04/18 06:59:16;;;;;;;;;;;;;;;13.49;100.00;100335.91;5590054;31;32847;-72
2023/04/18 07:02:19;;;;;;;;;;;;;;;13.31;100.00;100332.00;5590137;31;34928;-73
2023/04/18 07:05:22;;;;;;;;;;;;;;;13.85;100.00;100338.53;5590362;31;34193;-72
2023/04/18 07:08:24;;;;;;;;;;;;;;;13.36;100.00;100334.94;5590094;31;34119;-71
2023/04/18 07:11:27;;;;;;;;;;;;;;;13.80;100.00;100337.44;5575530;31;33897;-71
2023/04/18 07:14:29;;;;;;;;;;;;;;;13.63;100.00;100342.22;5589899;31;34242;-71
2023/04/18 07:17:36;;;;;;;;;;;;;;;13.78;100.00;100344.84;5590000;31;34113;-72
2023/04/18 07:20:39;;;;;;;;;;;;;;;13.86;100.00;100352.69;5590424;31;34293;-72
2023/04/18 07:23:41;;;;;;;;;;;;;;;13.99;100.00;100339.50;5590196;31;34943;-71
2023/04/18 07:26:44;;;;;;;;;;;;;;;14.33;100.00;100342.25;5589996;31;34177;-72
2023/04/18 07:29:47;;;;;;;;;;;;;;;14.53;100.00;100352.31;5590075;31;34818;-72
2023/04/18 07:32:49;;;;;;;;;;;;;;;14.12;100.00;100349.47;5590259;31;34127;-72
2023/04/18 07:35:52;;;;;;;;;;;;;;;14.45;100.00;100344.44;5590103;31;34696;-71
2023/04/18 07:38:55;;;;;;;;;;;;;;;14.59;100.00;100362.22;5576337;31;34272;-72
2023/04/18 07:41:58;;;;;;;;;;;;;;;14.56;100.00;100355.44;5589886;31;34314;-70
2023/04/18 07:45:00;;;;;;;;;;;;;;;14.35;100.00;100355.44;5590082;31;34261;-70
2023/04/18 07:48:03;;;;;;;;;;;;;;;13.75;100.00;100364.69;5590384;31;34712;-71
2023/04/18 07:51:06;;;;;;;;;;;;;;;13.66;100.00;100365.81;5589941;31;34250;-72
2023/04/18 07:54:10;;;;;;;;;;;;;;;13.66;100.00;100370.31;5589909;31;34670;-72
2023/04/18 07:57:17;;;;;;;;;;;;;;;13.52;100.00;100365.84;5589873;31;34076;-72
2023/04/18 08:00:20;;;;;;;;;;;;;;;13.37;100.00;100369.37;5589868;31;34860;-71
2023/04/18 08:03:23;;;;;;;;;;;;;;;13.34;100.00;100374.25;5589878;31;33918;-71
2023/04/18 08:06:27;;;;;;;;;;;;;;;13.69;100.00;100370.78;5590269;31;34331;-68
2023/04/18 08:09:29;;;;;;;;;;;;;;;13.58;100.00;100376.59;5589940;31;34098;-67
2023/04/18 08:12:32;;;;;;;;;;;;;;;14.09;100.00;100381.84;5589861;31;34285;-67
2023/04/18 08:15:34;;;;;;;;;;;;;;;14.66;100.00;100382.63;5589767;31;34143;-67
2023/04/18 08:18:37;;;;;;;;;;;;;;;14.70;100.00;100383.06;5589804;31;34383;-66
2023/04/18 08:21:39;;;;;;;;;;;;;;;14.73;100.00;100391.50;5589804;31;34190;-68
2023/04/18 08:24:42;;;;;;;;;;;;;;;15.13;100.00;100379.22;5589155;31;34999;-67
2023/04/18 08:28:05;;;;;;;;;;;;;;;15.48;100.00;100384.53;5590031;31;34229;-67
2023/04/18 08:31:10;;;;;;;;;;;;;;;16.99;96.37;100386.63;5589310;31;34346;-67
2023/04/18 08:34:13;;;;;;;;;;;;;;;18.60;80.46;100387.06;5589443;31;34342;-67
2023/04/18 08:37:15;;;;;;;;;;;;;;;18.99;78.10;100387.75;5589367;31;34292;-68
2023/04/18 08:40:18;;;;;;;;;;;;;;;19.98;67.55;100387.41;5576164;31;34717;-67
2023/04/18 08:43:21;;;;;;;;;;;;;;;20.45;64.25;100393.75;5589756;31;34427;-67
2023/04/18 08:46:23;;;;;;;;;;;;;;;21.87;56.91;100403.13;5589508;31;34059;-68
2023/04/18 08:49:27;;;;;;;;;;;;;;;19.63;61.96;100392.63;5589265;31;34254;-68
2023/04/18 08:52:30;;;;;;;;;;;;;;;18.02;68.24;100394.47;5589348;31;34125;-68
2023/04/18 08:55:33;;;;;;;;;;;;;;;17.14;72.42;100392.53;5589202;31;34477;-68
2023/04/18 08:58:36;;;;;;;;;;;;;;;16.79;75.98;100386.66;5589376;31;34864;-67
2023/04/18 09:01:55;;;;;;;;;;;;;;;17.35;74.38;100390.44;5589377;31;34256;-70
2023/04/18 09:04:58;;;;;;;;;;;;;;;16.88;77.39;100391.59;5589584;31;34309;-68
2023/04/18 09:08:20;;;;;;;;;;;;;;;16.50;78.66;100393.22;5589417;31;34136;-68
2023/04/18 09:11:27;;;;;;;;;;;;;;;16.35;74.95;100393.44;5589036;31;34964;-67
2023/04/18 09:14:31;;;;;;;;;;;;;;;16.46;74.72;100392.78;5589109;31;34221;-69
2023/04/18 09:17:42;;;;;;;;;;;;;;;16.79;72.29;100392.84;5588816;31;34181;-68
2023/04/18 09:20:46;;;;;;;;;;;;;;;18.42;68.93;100381.62;5588909;31;34169;-68
2023/04/18 09:23:49;;;;;;;;;;;;;;;18.23;69.02;100401.38;5589051;31;34654;-68
2023/04/18 09:26:55;;;;;;;;;;;;;;;18.53;59.39;100399.75;5574872;31;34478;-68
2023/04/18 09:29:59;;;;;;;;;;;;;;;18.10;67.79;100396.94;5588792;31;34782;-68
2023/04/18 09:33:02;;;;;;;;;;;;;;;17.07;71.83;100392.59;5588689;31;34003;-69
2023/04/18 09:36:15;;;;;;;;;;;;;;;17.20;73.57;100399.75;5590208;31;34853;-68
2023/04/18 09:39:25;;;;;;;;;;;;;;;17.05;74.95;100397.31;5591102;31;34329;-67
2023/04/18 09:42:34;;;;;;;;;;;;;;;16.61;76.12;100389.13;5591173;31;34189;-69
2023/04/18 09:45:37;;;;;;;;;;;;;;;18.69;66.12;100389.50;5590887;31;34846;-68
2023/04/18 09:48:40;;;;;;;;;;;;;;;19.21;63.17;100393.53;5577105;31;34218;-69
2023/04/18 09:51:43;;;;;;;;;;;;;;;19.06;63.50;100389.34;5590862;31;34094;-67
2023/04/18 09:54:46;;;;;;;;;;;;;;;19.01;63.59;100391.03;5590810;31;34772;-70
2023/04/18 09:57:51;;;;;;;;;;;;;;;18.80;61.53;100392.25;5590837;31;34433;-68
2023/04/18 10:00:55;;;;;;;;;;;;;;;18.95;60.91;100382.00;5590973;31;34819;-72
2023/04/18 10:04:00;;;;;;;;;;;;;;;19.20;62.45;100387.31;5590941;31;34255;-71
2023/04/18 10:07:03;;;;;;;;;;;;;;;18.49;62.41;100385.06;5591216;31;32830;-73
2023/04/18 10:10:06;;;;;;;;;;;;;;;18.29;64.51;100373.66;5576695;31;34154;-72
2023/04/18 10:13:10;;;;;;;;;;;;;;;19.39;59.57;100382.75;5590803;31;34231;-71
2023/04/18 10:16:13;;;;;;;;;;;;;;;19.34;57.67;100379.91;5590808;31;34615;-69
2023/04/18 10:19:19;;;;;;;;;;;;;;;18.73;56.00;100378.09;5590488;31;34413;-69
2023/04/18 10:22:26;;;;;;;;;;;;;;;18.29;55.63;100388.94;5590407;31;34803;-70
2023/04/18 10:25:38;;;;;;;;;;;;;;;17.51;58.96;100378.41;5590426;31;34617;-70
2023/04/18 10:28:51;;;;;;;;;;;;;;;17.32;59.45;100379.31;5590413;31;34357;-69
2023/04/18 10:32:04;;;;;;;;;;;;;;;17.60;58.28;100376.34;5590610;31;33023;-69
2023/04/18 10:35:09;;;;;;;;;;;;;;;17.86;55.95;100375.41;5590203;31;34105;-70
2023/04/18 10:38:21;;;;;;;;;;;;;;;17.52;55.85;100382.75;5590217;31;34111;-70
2023/04/18 10:41:27;;;;;;;;;;;;;;;18.46;54.43;100382.00;5590316;31;34178;-70
2023/04/18 10:44:29;;;;;;;;;;;;;;;19.30;50.53;100384.94;5590022;31;34848;-70
2023/04/18 10:47:32;;;;;;;;;;;;;;;19.95;49.79;100375.19;5576722;31;34287;-70
2023/04/18 10:50:55;;;;;;;;;;;;;;;20.58;47.97;100369.28;5591589;31;34565;-69
2023/04/18 10:53:59;;;;;;;;;;;;;;;19.52;48.25;100374.53;5590368;31;35139;-69
2023/04/18 10:57:02;;;;;;;;;;;;;;;19.11;48.89;100375.22;5590289;31;34453;-69
2023/04/18 11:00:12;;;;;;;;;;;;;;;19.17;51.50;100374.31;5590080;31;35012;-69
2023/04/18 11:03:15;;;;;;;;;;;;;;;19.06;50.40;100369.69;5590132;31;34436;-69
2023/04/18 11:06:17;;;;;;;;;;;;;;;18.39;53.09;100368.63;5590400;31;34833;-69
2023/04/18 11:09:21;;;;;;;;;;;;;;;18.36;52.31;100365.53;5590486;31;34142;-69
2023/04/18 11:12:27;;;;;;;;;;;;;;;17.52;54.09;100361.28;5590931;31;35141;-68
2023/04/18 11:15:30;;;;;;;;;;;;;;;18.66;52.19;100367.38;5589872;31;34600;-69
2023/04/18 11:18:40;;;;;;;;;;;;;;;20.79;47.72;100368.72;5590183;31;34105;-69
2023/04/18 11:21:42;;;;;;;;;;;;;;;20.06;47.33;100367.41;5590256;31;34759;-72
2023/04/18 11:24:45;;;;;;;;;;;;;;;19.79;47.92;100370.47;5576620;31;34758;-70
2023/04/18 11:27:50;;;;;;;;;;;;;;;19.60;48.10;100368.06;5590769;31;34173;-69
2023/04/18 11:30:56;;;;;;;;;;;;;;;19.25;50.13;100381.25;5589790;31;34478;-68
2023/04/18 11:34:00;;;;;;;;;;;;;;;18.43;51.45;100380.56;5576254;31;34408;-70
2023/04/18 11:37:07;;;;;;;;;;;;;;;18.45;50.93;100373.09;5589870;31;34093;-68
2023/04/18 11:40:10;;;;;;;;;;;;;;;18.92;51.87;100373.56;5589643;31;34344;-67
2023/04/18 11:43:18;;;;;;;;;;;;;;;18.32;52.24;100370.53;5589946;31;34869;-70
2023/04/18 11:46:21;;;;;;;;;;;;;;;18.95;52.34;100375.78;5590888;31;34374;-69
2023/04/18 11:49:30;;;;;;;;;;;;;;;17.75;53.71;100361.63;5590525;31;34837;-68
2023/04/18 11:52:34;;;;;;;;;;;;;;;17.35;55.10;100360.13;5589719;31;34216;-70
2023/04/18 11:55:36;;;;;;;;;;;;;;;17.53;55.67;100362.09;5589651;31;35053;-68
2023/04/18 11:58:39;;;;;;;;;;;;;;;17.41;56.51;100359.28;5588922;31;34179;-68
2023/04/18 12:01:42;;;;;;;;;;;;;;;17.31;56.36;100353.53;5575983;31;34329;-69
2023/04/18 12:04:48;;;;;;;;;;;;;;;17.88;54.79;100358.03;5589698;31;34931;-69
2023/04/18 12:07:51;;;;;;;;;;;;;;;19.22;52.57;100355.63;5589640;31;34309;-68
2023/04/18 12:10:54;;;;;;;;;;;;;;;20.26;48.29;100357.12;5575878;31;34069;-69
2023/04/18 12:13:57;;;;;;;;;;;;;;;20.18;48.24;100368.25;5590060;31;34335;-68
2023/04/18 12:17:02;;;;;;;;;;;;;;;20.64;46.94;100365.66;5590114;31;34224;-69
2023/04/18 12:20:08;;;;;;;;;;;;;;;21.22;46.42;100356.72;5589539;31;34355;-70
2023/04/18 12:23:30;;;;;;;;;;;;;;;21.68;43.83;100362.00;5589850;31;34964;-71
2023/04/18 12:26:32;;;;;;;;;;;;;;;21.69;43.56;100360.09;5589890;31;34852;-69
2023/04/18 12:29:35;;;;;;;;;;;;;;;19.88;45.28;100354.81;5589922;31;34301;-68
2023/04/18 12:32:38;;;;;;;;;;;;;;;19.24;47.93;100360.78;5589479;31;34934;-70
2023/04/18 12:35:41;;;;;;;;;;;;;;;18.79;48.42;100355.69;5589515;31;34071;-69
2023/04/18 12:38:44;;;;;;;;;;;;;;;18.38;50.89;100350.03;5575728;31;34856;-69
2023/04/18 12:41:47;;;;;;;;;;;;;;;17.87;50.81;100359.06;5589183;31;34204;-69
2023/04/18 12:44:51;;;;;;;;;;;;;;;17.84;51.57;100366.72;5589146;31;34930;-68
2023/04/18 12:47:53;;;;;;;;;;;;;;;17.70;45.81;100360.62;5589425;31;34240;-69
2023/04/18 12:50:56;;;;;;;;;;;;;;;17.65;44.79;100360.44;5589566;31;34215;-68
2023/04/18 12:53:59;;;;;;;;;;;;;;;18.02;43.68;100362.28;5589277;31;33835;-69
2023/04/18 12:57:02;;;;;;;;;;;;;;;18.06;42.79;100355.41;5589220;31;34341;-69
2023/04/18 13:00:11;;;;;;;;;;;;;;;20.52;39.10;100355.94;5589004;31;34049;-68
2023/04/18 13:03:14;;;;;;;;;;;;;;;23.07;34.57;100358.66;5589088;31;35112;-70
2023/04/18 13:06:17;;;;;;;;;;;;;;;24.31;31.70;100358.72;5588939;31;34176;-71
2023/04/18 13:09:19;;;;;;;;;;;;;;;25.04;30.35;100352.47;5588942;31;35638;-70
2023/04/18 13:12:22;;;;;;;;;;;;;;;26.35;28.85;100352.87;5589033;31;34816;-69
2023/04/18 13:15:26;;;;;;;;;;;;;;;28.69;26.85;100355.37;5589027;31;34187;-70
2023/04/18 13:18:29;;;;;;;;;;;;;;;25.01;30.36;100353.84;5588901;31;34838;-69
2023/04/18 13:21:31;;;;;;;;;;;;;;;27.02;26.99;100353.62;5589043;31;34184;-69
2023/04/18 13:24:35;;;;;;;;;;;;;;;30.09;23.44;100354.75;5589090;31;34790;-71
2023/04/18 13:27:39;;;;;;;;;;;;;;;29.75;23.47;100349.50;5588237;31;34850;-71
2023/04/18 13:30:43;;;;;;;;;;;;;;;31.17;22.39;100354.53;5588297;31;34125;-70
2023/04/18 13:33:46;;;;;;;;;;;;;;;30.94;22.64;100362.59;5588487;31;34484;-69
2023/04/18 13:36:48;;;;;;;;;;;;;;;27.25;25.53;100353.03;5588550;31;34794;-70
2023/04/18 13:39:51;;;;;;;;;;;;;;;26.46;26.79;100356.44;5588560;31;33766;-70
2023/04/18 13:42:53;;;;;;;;;;;;;;;28.35;25.40;100350.78;5588132;31;34489;-69
2023/04/18 13:45:56;;;;;;;;;;;;;;;28.19;24.54;100348.44;5587997;31;34809;-71
2023/04/18 13:48:58;;;;;;;;;;;;;;;26.82;26.08;100346.28;5588065;31;34227;-69
2023/04/18 13:52:01;;;;;;;;;;;;;;;28.92;23.32;100346.41;5588053;31;34388;-69
2023/04/18 13:55:04;;;;;;;;;;;;;;;28.68;23.38;100356.47;5588066;31;34185;-69
2023/04/18 13:58:07;;;;;;;;;;;;;;;29.17;22.62;100342.59;5587979;31;34871;-69
2023/04/18 14:01:15;;;;;;;;;;;;;;;29.92;22.63;100346.25;5574971;31;34997;-69
2023/04/18 14:04:21;;;;;;;;;;;;;;;29.34;22.71;100354.69;5587659;31;34464;-70
2023/04/18 14:07:24;;;;;;;;;;;;;;;26.36;23.88;100350.97;5587633;31;34839;-71
2023/04/18 14:10:27;;;;;;;;;;;;;;;24.60;27.93;100335.63;5588010;31;34084;-69
2023/04/18 14:13:30;;;;;;;;;;;;;;;25.07;26.08;100328.34;5574096;31;34264;-68
2023/04/18 14:16:33;;;;;;;;;;;;;;;24.58;26.00;100337.78;5587829;31;34342;-69
2023/04/18 14:19:35;;;;;;;;;;;;;;;;;;5587458;31;34233;-69
2023/04/18 14:22:38;;;;;;;;;;;;;;;22.74;28.94;100335.19;5589466;31;35293;-70
2023/04/18 14:25:40;;;;;;;;;;;;;;;22.36;29.12;100327.84;5590054;31;34094;-69
2023/04/18 14:28:44;;;;;;;;;;;;;;;24.75;26.83;100329.47;5590292;31;34977;-68
2023/04/18 14:31:47;;;;;;;;;;;;;;;24.57;27.38;100328.84;5576263;31;34287;-68
2023/04/18 14:34:51;;;;;;;;;;;;;;;23.57;27.74;100331.44;5589713;31;34292;-72
2023/04/18 14:37:54;;;;;;;;;;;;;;;23.02;29.02;100332.34;5589922;31;34125;-68
2023/04/18 14:40:57;;;;;;;;;;;;;;;20.94;31.50;100324.25;5589955;31;34786;-68
2023/04/18 14:44:00;;;;;;;;;;;;;;;20.82;32.64;100330.47;5582724;31;139260;-68
2023/04/18 14:47:02;;;;;;;;;;;;;;;20.99;31.72;100325.19;5565669;31;34204;-69
2023/04/18 14:50:06;;;;;;;;;;;;;;;19.92;33.17;100329.06;5590154;31;34265;-70
2023/04/18 14:53:09;;;;;;;;;;;;;;;19.46;32.62;100330.53;5589968;31;34255;-69
2023/04/18 14:56:13;;;;;;;;;;;;;;;18.88;32.38;100330.16;5590052;31;34183;-69
2023/04/18 14:59:17;;;;;;;;;;;;;;;18.70;32.45;100335.50;5589972;31;34795;-72
2023/04/18 15:02:20;;;;;;;;;;;;;;;18.52;34.08;100333.59;5589770;31;34224;-69
2023/04/18 15:05:23;;;;;;;;;;;;;;;18.59;34.44;100331.69;5589878;31;35094;-70
2023/04/18 15:08:25;;;;;;;;;;;;;;;18.89;34.61;100336.34;5589992;31;34444;-69
2023/04/18 15:11:28;;;;;;;;;;;;;;;18.38;34.55;100332.06;5589661;31;34838;-69
2023/04/18 15:14:31;;;;;;;;;;;;;;;18.01;36.12;100336.47;5590242;31;34827;-68
2023/04/18 15:17:34;;;;;;;;;;;;;;;17.90;35.66;100325.63;5590152;31;34859;-68
2023/04/18 15:20:38;;;;;;;;;;;;;;;17.98;36.98;100323.47;5589929;31;34271;-69
2023/04/18 15:23:41;;;;;;;;;;;;;;;17.86;36.38;100327.91;5590328;31;34873;-69
2023/04/18 15:26:44;;;;;;;;;;;;;;;17.95;35.77;100325.78;5590435;31;34336;-69
2023/04/18 15:29:46;;;;;;;;;;;;;;;17.95;35.79;100334.66;5590127;31;34078;-69
2023/04/18 15:32:49;;;;;;;;;;;;;;;17.96;36.87;100336.28;5588485;31;34938;-67
2023/04/18 15:35:53;;;;;;;;;;;;;;;17.74;36.23;100329.63;5589752;31;34942;-68
2023/04/18 15:38:56;;;;;;;;;;;;;;;17.56;36.77;100332.19;5589826;31;34594;-69